Honaker, Virginia
Current Conditions -  °F | °C
As of 7:15 AM on Tuesday 27 Jan 2015 (Local Time) from KJFZ Reporting Station
Overcast Overcast  
Wind Chill: 12°   Ceiling: 1700
Heat Index: 21°   Visibility: 10mi
Dew Point: 14°   Wind: 7mph
Humidity: 73%   Direction: 330°NNW
Pressure: 29.8"   Gusts: NA
Location:  37.02°N, 81.97°W
Report Text: KJFZ 271215Z AUTO 33006KT 10SM OVC017 M06/M10 A2980 RMK AO2 T10611102
Loading
Personal Weather Stations






























Interactive Weather Map New forecast layout! Learn more

10-Day Weather Forecast

Advertisements
Track Severe Weather on mobile